createdAt,value
2023-02-25T00:01:21.667Z,98573.41
2023-02-25T00:03:48.421Z,98575.09
2023-02-25T00:06:15.290Z,98579.41
2023-02-25T00:08:46.104Z,98583.84
2023-02-25T00:11:14.428Z,98575.03
2023-02-25T00:13:41.759Z,98569.69
2023-02-25T00:16:09.422Z,98568.00
2023-02-25T00:18:36.577Z,98563.66
2023-02-25T00:21:07.942Z,98572.50
2023-02-25T00:23:34.407Z,98570.72
2023-02-25T00:26:09.082Z,98574.25
2023-02-25T00:28:35.854Z,98562.97
2023-02-25T00:31:07.418Z,98575.34
2023-02-25T00:33:34.065Z,98579.63
2023-02-25T00:36:00.537Z,98572.75
2023-02-25T00:38:27.899Z,98584.03
2023-02-25T00:40:54.335Z,98583.19
2023-02-25T00:43:20.804Z,98584.97
2023-02-25T00:45:47.276Z,98569.31
2023-02-25T00:48:13.713Z,98566.69
2023-02-25T00:50:40.285Z,98570.13
2023-02-25T00:53:06.819Z,98583.19
2023-02-25T00:55:33.631Z,98586.56
2023-02-25T00:58:04.113Z,98589.25
2023-02-25T01:00:35.852Z,98602.13
2023-02-25T01:03:07.330Z,98589.91
2023-02-25T01:05:33.944Z,98589.84
2023-02-25T01:08:00.776Z,98589.84
2023-02-25T01:10:28.253Z,98584.63
2023-02-25T01:12:54.765Z,98598.41
2023-02-25T01:15:21.282Z,98581.84
2023-02-25T01:17:47.766Z,98589.69
2023-02-25T01:20:14.505Z,98594.91
2023-02-25T01:22:41.989Z,98607.97
2023-02-25T01:25:13.964Z,98601.88
2023-02-25T01:27:40.484Z,98602.72
2023-02-25T01:30:08.673Z,98610.56
2023-02-25T01:32:35.416Z,98613.19
2023-02-25T01:35:02.361Z,98606.25
2023-02-25T01:37:29.061Z,98618.41
2023-02-25T01:39:55.663Z,98622.69
2023-02-25T01:42:22.166Z,98622.69
2023-02-25T01:45:19.805Z,98622.84
2023-02-25T01:47:51.322Z,98627.06
2023-02-25T01:50:25.222Z,98634.06
2023-02-25T01:52:53.391Z,98630.44
2023-02-25T01:55:20.044Z,98632.19
2023-02-25T01:57:47.004Z,98627.84
2023-02-25T02:00:17.193Z,98634.00
2023-02-25T02:02:47.183Z,98628.78
2023-02-25T02:05:14.502Z,98627.91
2023-02-25T02:07:41.341Z,98619.16
2023-02-25T02:10:08.397Z,98619.16
2023-02-25T02:12:39.576Z,98621.75
2023-02-25T02:15:11.062Z,98622.63
2023-02-25T02:17:51.388Z,98621.84
2023-02-25T02:20:25.783Z,98625.22
2023-02-25T02:23:25.102Z,98633.13
2023-02-25T02:26:15.222Z,98623.34
2023-02-25T02:29:16.783Z,98617.47
2023-02-25T02:32:05.225Z,98619.22
2023-02-25T02:34:40.734Z,98631.28
2023-02-25T02:37:19.175Z,98638.38
2023-02-25T02:40:05.696Z,98639.09
2023-02-25T02:42:39.041Z,98633.81
2023-02-25T02:45:19.886Z,98622.63
2023-02-25T02:47:52.529Z,98624.38
2023-02-25T02:50:25.871Z,98626.97
2023-02-25T02:52:56.380Z,98640.81
2023-02-25T02:55:30.824Z,98642.56
2023-02-25T02:58:08.941Z,98647.88
2023-02-25T03:00:40.964Z,98641.72
2023-02-25T03:03:16.242Z,98639.22
2023-02-25T03:05:48.040Z,98643.50
2023-02-25T03:08:23.465Z,98637.59
2023-02-25T03:10:50.013Z,98648.88
2023-02-25T03:13:17.137Z,98635.91
2023-02-25T03:15:44.752Z,98640.41
2023-02-25T03:18:40.249Z,98638.97
2023-02-25T03:21:13.587Z,98644.09
2023-02-25T03:23:41.834Z,98647.44
2023-02-25T03:26:23.114Z,98642.50
2023-02-25T03:28:50.067Z,98644.91
2023-02-25T03:31:25.795Z,98660.78
2023-02-25T03:33:58.448Z,98654.69
2023-02-25T03:36:32.505Z,98650.34
2023-02-25T03:39:13.992Z,98652.09
2023-02-25T03:41:44.946Z,98663.19
2023-02-25T03:44:16.994Z,98665.91
2023-02-25T03:46:47.131Z,98667.59
2023-02-25T03:49:20.475Z,98671.16
2023-02-25T03:51:49.588Z,98677.19
2023-02-25T03:54:16.716Z,98678.97
2023-02-25T03:56:48.949Z,98688.56
2023-02-25T03:59:16.994Z,98689.31
2023-02-25T04:01:46.606Z,98686.63
2023-02-25T04:04:13.082Z,98694.53
2023-02-25T04:06:39.773Z,98701.47
2023-02-25T04:09:06.519Z,98698.75
2023-02-25T04:11:33.200Z,98699.59
2023-02-25T04:13:59.708Z,98708.28
2023-02-25T04:16:26.415Z,98701.28
2023-02-25T04:18:52.925Z,98706.59
2023-02-25T04:21:35.374Z,98704.16
2023-02-25T04:24:03.281Z,98714.41
2023-02-25T04:26:29.820Z,98709.19
2023-02-25T04:28:56.591Z,98711.81
2023-02-25T04:31:23.497Z,98711.81
2023-02-25T04:33:50.636Z,98718.81
2023-02-25T04:36:28.060Z,98718.16
2023-02-25T04:38:55.777Z,98722.25
2023-02-25T04:41:23.761Z,98722.25
2023-02-25T04:43:50.575Z,98737.03
2023-02-25T04:46:17.185Z,98723.03
2023-02-25T04:48:43.676Z,98723.03
2023-02-25T04:51:10.335Z,98724.63
2023-02-25T04:53:37.016Z,98726.22
2023-02-25T04:56:08.753Z,98724.56
2023-02-25T04:58:36.794Z,98727.00
2023-02-25T05:01:07.244Z,98719.91
2023-02-25T05:03:33.791Z,98718.06
2023-02-25T05:06:00.446Z,98724.91
2023-02-25T05:08:26.982Z,98733.56
2023-02-25T05:10:53.630Z,98728.25
2023-02-25T05:13:20.677Z,98716.03
2023-02-25T05:15:47.727Z,98727.25
2023-02-25T05:18:14.297Z,98718.47
2023-02-25T05:20:46.324Z,98730.72
2023-02-25T05:23:21.714Z,98727.97
2023-02-25T05:25:48.287Z,98734.00
2023-02-25T05:28:14.739Z,98737.41
2023-02-25T05:30:41.298Z,98726.94
2023-02-25T05:33:09.245Z,98734.59
2023-02-25T05:35:40.711Z,98738.16
2023-02-25T05:38:07.316Z,98745.91
2023-02-25T05:40:36.960Z,98742.34
2023-02-25T05:43:03.531Z,98750.19
2023-02-25T05:46:11.259Z,98753.91
2023-02-25T05:48:39.097Z,98765.78
2023-02-25T05:51:13.564Z,98764.13
2023-02-25T05:53:40.378Z,98764.13
2023-02-25T05:56:10.666Z,98763.34
2023-02-25T05:58:37.282Z,98766.81
2023-02-25T06:02:06.133Z,98770.59
2023-02-25T06:04:32.821Z,98768.75
2023-02-25T06:06:59.430Z,98766.31
2023-02-25T06:09:26.936Z,98755.16
2023-02-25T06:11:53.458Z,98757.06
2023-02-25T06:14:19.986Z,98758.22
2023-02-25T06:16:46.543Z,98762.63
2023-02-25T06:19:13.310Z,98770.63
2023-02-25T06:21:40.247Z,98771.63
2023-02-25T06:24:07.911Z,98783.84
2023-02-25T06:26:35.385Z,98785.72
2023-02-25T06:29:01.810Z,98793.53
2023-02-25T06:31:28.410Z,98797.09
2023-02-25T06:33:55.193Z,98798.09
2023-02-25T06:36:22.153Z,98806.94
2023-02-25T06:38:48.988Z,98814.00
2023-02-25T06:41:20.637Z,98822.81
2023-02-25T06:43:52.171Z,98827.13
2023-02-25T06:46:21.966Z,98827.97
2023-02-25T06:48:48.889Z,98823.69
2023-02-25T06:51:15.560Z,98835.81
2023-02-25T06:57:46.592Z,98846.94
2023-02-25T07:00:13.868Z,98853.94
2023-02-25T07:02:40.518Z,98855.63
2023-02-25T07:05:07.418Z,98842.56
2023-02-25T07:07:34.025Z,98846.00
2023-02-25T07:10:00.646Z,98846.00
2023-02-25T07:12:27.289Z,98849.41
2023-02-25T07:14:53.884Z,98861.53
2023-02-25T07:17:20.362Z,98855.38
2023-02-25T07:19:46.978Z,98863.13
2023-02-25T07:22:18.597Z,98867.53
2023-02-25T07:24:45.752Z,98860.38
2023-02-25T07:27:13.865Z,98870.72
2023-02-25T07:29:41.322Z,98877.56
2023-02-25T07:32:09.242Z,98877.41
2023-02-25T07:34:37.490Z,98879.00
2023-02-25T07:37:04.066Z,98877.81
2023-02-25T07:39:30.614Z,98890.78
2023-02-25T07:41:57.149Z,98889.69
2023-02-25T07:44:24.040Z,98894.69
2023-02-25T07:46:50.555Z,98889.19
2023-02-25T07:49:17.107Z,98895.88
2023-02-25T07:51:43.761Z,98896.53
2023-02-25T07:54:10.271Z,98894.63
2023-02-25T07:56:36.787Z,98896.22
2023-02-25T07:59:03.381Z,98902.06
2023-02-25T08:01:33.182Z,98904.59
2023-02-25T08:04:04.346Z,98908.72
2023-02-25T08:06:31.894Z,98915.47
2023-02-25T08:08:58.426Z,98915.22
2023-02-25T08:11:26.151Z,98922.06
2023-02-25T08:13:53.522Z,98927.97
2023-02-25T08:19:06.686Z,98930.09
2023-02-25T08:21:33.896Z,98925.53
2023-02-25T08:24:00.423Z,98926.22
2023-02-25T08:26:27.647Z,98926.13
2023-02-25T08:28:54.560Z,98932.97
2023-02-25T08:31:21.487Z,98938.09
2023-02-25T08:33:49.815Z,98940.63
2023-02-25T08:36:23.129Z,98951.09
2023-02-25T08:38:51.233Z,98937.00
2023-02-25T08:41:19.631Z,98913.47
2023-02-25T08:43:51.368Z,98941.34
2023-02-25T08:46:20.899Z,98924.63
2023-02-25T08:48:51.708Z,98930.59
2023-02-25T08:51:19.746Z,98937.25
2023-02-25T08:53:46.319Z,98944.09
2023-02-25T08:56:14.527Z,98949.09
2023-02-25T08:58:41.361Z,98948.81
2023-02-25T09:01:14.040Z,98954.06
2023-02-25T09:03:51.345Z,98963.41
2023-02-25T09:06:28.216Z,98960.06
2023-02-25T09:08:57.148Z,98964.53
2023-02-25T09:11:25.561Z,98979.63
2023-02-25T09:13:53.211Z,98988.59
2023-02-25T09:16:20.554Z,98978.47
2023-02-25T09:18:48.637Z,98979.56
2023-02-25T09:21:15.325Z,98986.81
2023-02-25T09:23:42.488Z,98996.50
2023-02-25T09:26:09.177Z,98993.16
2023-02-25T09:28:36.697Z,98994.03
2023-02-25T09:31:03.839Z,99001.16
2023-02-25T09:33:35.938Z,99003.09
2023-02-25T09:36:09.892Z,99024.00
2023-02-25T09:38:37.099Z,99016.06
2023-02-25T09:41:05.054Z,98998.00
2023-02-25T09:43:39.845Z,99023.47
2023-02-25T09:46:10.627Z,99027.94
2023-02-25T09:49:17.975Z,99037.81
2023-02-25T09:51:51.839Z,99045.41
2023-02-25T09:54:25.448Z,99049.63
2023-02-25T09:56:55.266Z,99048.72
2023-02-25T09:59:22.178Z,99041.53
2023-02-25T10:01:57.821Z,99055.56
2023-02-25T10:04:33.015Z,99055.47
2023-02-25T10:07:18.943Z,99075.63
2023-02-25T10:10:02.741Z,99061.94
2023-02-25T10:12:45.813Z,99082.19
2023-02-25T10:15:53.002Z,99077.25
2023-02-25T10:18:36.126Z,99081.81
2023-02-25T10:21:17.678Z,99093.19
2023-02-25T10:24:03.649Z,99087.91
2023-02-25T10:26:35.206Z,99095.50
2023-02-25T10:29:12.106Z,99097.16
2023-02-25T10:31:44.067Z,99097.97
2023-02-25T10:34:26.584Z,99095.41
2023-02-25T10:36:58.664Z,99092.56
2023-02-25T10:39:27.009Z,99108.94
2023-02-25T10:41:54.189Z,99110.56
2023-02-25T10:44:21.530Z,99119.16
2023-02-25T10:47:05.605Z,99124.22
2023-02-25T10:49:38.413Z,99116.16
2023-02-25T10:52:06.993Z,99118.72
2023-02-25T10:54:44.707Z,99130.44
2023-02-25T10:57:16.107Z,99114.53
2023-02-25T10:59:44.652Z,99129.72
2023-02-25T11:02:23.340Z,99124.00
2023-02-25T11:04:52.503Z,99132.91
2023-02-25T11:07:30.915Z,99126.41
2023-02-25T11:10:09.277Z,99119.81
2023-02-25T11:13:05.983Z,99122.78
2023-02-25T11:15:46.214Z,99112.75
2023-02-25T11:18:27.173Z,99135.22
2023-02-25T11:20:56.525Z,99133.78
2023-02-25T11:23:32.258Z,99149.84
2023-02-25T11:25:59.683Z,99150.00
2023-02-25T11:28:34.537Z,99149.28
2023-02-25T11:31:10.783Z,99148.44
2023-02-25T11:33:45.501Z,99146.03
2023-02-25T11:36:12.610Z,99154.72
2023-02-25T11:38:41.938Z,99149.69
2023-02-25T11:41:23.422Z,99136.97
2023-02-25T11:43:50.340Z,99149.06
2023-02-25T11:46:28.047Z,99148.34
2023-02-25T11:49:05.810Z,99147.88
2023-02-25T11:51:47.271Z,99154.59
2023-02-25T11:54:14.036Z,99152.28
2023-02-25T11:56:48.440Z,99161.97
2023-02-25T11:59:40.402Z,99166.69
2023-02-25T12:02:27.426Z,99153.53
2023-02-25T12:05:28.009Z,99155.00
2023-02-25T12:08:20.982Z,99163.94
2023-02-25T12:11:06.015Z,99172.06
2023-02-25T12:13:51.496Z,99176.94
2023-02-25T12:16:48.730Z,99162.88
2023-02-25T12:19:30.474Z,99167.84
2023-02-25T12:22:12.879Z,99168.47
2023-02-25T12:24:43.494Z,99171.59
2023-02-25T12:27:52.313Z,99169.97
2023-02-25T12:30:27.570Z,99166.81
2023-02-25T12:32:56.747Z,99171.03
2023-02-25T12:35:41.960Z,99167.22
2023-02-25T12:38:31.789Z,99178.38
2023-02-25T12:41:16.684Z,99175.94
2023-02-25T12:43:57.516Z,99168.28
2023-02-25T12:46:42.034Z,99177.50
2023-02-25T12:49:21.843Z,99196.22
2023-02-25T12:52:17.420Z,99185.06
2023-02-25T12:55:10.255Z,99187.25
2023-02-25T12:57:45.648Z,99195.91
2023-02-25T13:01:10.804Z,99190.03
2023-02-25T13:03:49.323Z,99196.38
2023-02-25T13:06:21.347Z,99201.38
2023-02-25T13:09:10.571Z,99206.78
2023-02-25T13:12:12.741Z,99201.03
2023-02-25T13:14:44.509Z,99204.19
2023-02-25T13:17:16.674Z,99227.22
2023-02-25T13:19:58.041Z,99223.63
2023-02-25T13:22:46.428Z,99219.69
2023-02-25T13:25:23.377Z,99205.72
2023-02-25T13:28:19.823Z,99222.53
2023-02-25T13:30:50.704Z,99229.94
2023-02-25T13:33:53.399Z,99230.03
2023-02-25T13:36:28.945Z,99229.13
2023-02-25T13:39:01.639Z,99212.97
2023-02-25T13:41:51.034Z,99246.41
2023-02-25T13:44:39.193Z,99242.00
2023-02-25T13:47:17.817Z,99239.81
2023-02-25T13:50:21.901Z,99232.00
2023-02-25T13:53:23.207Z,99233.06
2023-02-25T13:56:04.931Z,99248.50
2023-02-25T13:58:47.556Z,99250.81
2023-02-25T14:01:29.956Z,99255.88
2023-02-25T14:04:23.213Z,99252.03
2023-02-25T14:07:10.621Z,99258.16
2023-02-25T14:09:59.498Z,99258.84
2023-02-25T14:12:32.184Z,99266.41
2023-02-25T14:15:17.220Z,99268.88
2023-02-25T14:17:56.834Z,99272.56
2023-02-25T14:20:34.808Z,99278.59
2023-02-25T14:23:11.755Z,99281.47
2023-02-25T14:25:59.902Z,99276.19
2023-02-25T14:28:59.842Z,99284.72
2023-02-25T14:31:48.021Z,99289.72
2023-02-25T14:34:31.859Z,99294.69
2023-02-25T14:37:08.714Z,99303.50
2023-02-25T14:40:04.068Z,99301.97
2023-02-25T14:42:53.801Z,99308.09
2023-02-25T14:45:26.063Z,99315.44
2023-02-25T14:48:06.664Z,99315.53
2023-02-25T14:50:49.672Z,99318.97
2023-02-25T14:53:25.353Z,99318.56
2023-02-25T14:56:06.157Z,99320.94
2023-02-25T14:58:41.596Z,99331.31
2023-02-25T15:01:35.956Z,99333.31
2023-02-25T15:04:17.763Z,99345.16
2023-02-25T15:07:19.235Z,99341.00
2023-02-25T15:10:13.504Z,99347.88
2023-02-25T15:12:42.839Z,99353.59
2023-02-25T15:15:33.947Z,99352.38
2023-02-25T15:18:26.268Z,99347.03
2023-02-25T15:20:53.096Z,99354.03
2023-02-25T15:23:20.900Z,99365.13
2023-02-25T15:26:11.712Z,99359.88
2023-02-25T15:28:40.849Z,99362.72
2023-02-25T15:31:32.732Z,99369.72
2023-02-25T15:34:32.795Z,99368.88
2023-02-25T15:37:20.020Z,99381.19
2023-02-25T15:39:49.929Z,99387.66
2023-02-25T15:42:16.812Z,99395.19
2023-02-25T15:44:44.686Z,99401.41
2023-02-25T15:47:28.681Z,99403.81
2023-02-25T15:49:57.222Z,99401.31
2023-02-25T15:52:52.553Z,99412.06
2023-02-25T15:55:39.866Z,99416.66
2023-02-25T15:58:24.644Z,99420.41
2023-02-25T16:00:52.925Z,99422.13
2023-02-25T16:03:31.344Z,99423.34
2023-02-25T16:06:11.527Z,99429.97
2023-02-25T16:08:41.403Z,99437.22
2023-02-25T16:11:20.609Z,99442.56
2023-02-25T16:13:47.885Z,99449.16
2023-02-25T16:16:17.289Z,99447.91
2023-02-25T16:18:49.947Z,99457.09
2023-02-25T16:21:37.211Z,99455.53
2023-02-25T16:24:11.247Z,99461.94
2023-02-25T16:26:47.759Z,99475.22
2023-02-25T16:29:30.339Z,99472.44
2023-02-25T16:32:02.461Z,99476.50
2023-02-25T16:34:36.696Z,99479.84
2023-02-25T16:37:38.646Z,99496.50
2023-02-25T16:40:05.987Z,99499.78
2023-02-25T16:42:34.109Z,99506.69
2023-02-25T16:45:04.917Z,99508.25
2023-02-25T16:47:39.075Z,99510.75
2023-02-25T16:50:13.807Z,99513.13
2023-02-25T16:52:47.866Z,99519.72
2023-02-25T16:55:35.540Z,99531.81
2023-02-25T16:58:20.197Z,99524.25
2023-02-25T17:00:56.143Z,99530.94
2023-02-25T17:03:25.031Z,99534.81
2023-02-25T17:06:14.639Z,99538.84
2023-02-25T17:08:46.154Z,99543.47
2023-02-25T17:11:18.057Z,99544.59
2023-02-25T17:13:48.195Z,99548.28
2023-02-25T17:16:23.858Z,99544.28
2023-02-25T17:18:55.762Z,99542.66
2023-02-25T17:21:29.977Z,99552.47
2023-02-25T17:23:58.628Z,99547.34
2023-02-25T17:26:25.517Z,99550.16
2023-02-25T17:29:00.662Z,99562.63
2023-02-25T17:31:38.549Z,99556.66
2023-02-25T17:34:29.171Z,99566.56
2023-02-25T17:36:58.304Z,99561.31
2023-02-25T17:39:26.064Z,99564.94
2023-02-25T17:41:53.446Z,99565.97
2023-02-25T17:44:47.455Z,99563.78
2023-02-25T17:47:21.673Z,99564.84
2023-02-25T17:49:49.477Z,99563.28
2023-02-25T17:52:30.576Z,99564.50
2023-02-25T17:54:58.371Z,99568.16
2023-02-25T17:57:27.500Z,99574.56
2023-02-25T17:59:57.958Z,99572.13
2023-02-25T18:02:39.122Z,99584.78
2023-02-25T18:05:11.742Z,99582.22
2023-02-25T18:07:40.153Z,99582.41
2023-02-25T18:10:26.739Z,99580.19
2023-02-25T18:13:07.916Z,99586.34
2023-02-25T18:15:40.784Z,99587.41
2023-02-25T18:18:20.778Z,99587.56
2023-02-25T18:21:19.887Z,99591.22
2023-02-25T18:23:48.437Z,99594.63
2023-02-25T18:26:16.714Z,99595.63
2023-02-25T18:28:44.471Z,99605.28
2023-02-25T18:31:11.523Z,99598.47
2023-02-25T18:33:38.307Z,99609.06
2023-02-25T18:36:07.598Z,99605.00
2023-02-25T18:38:37.496Z,99603.38
2023-02-25T18:41:08.015Z,99595.81
2023-02-25T18:43:39.984Z,99595.13
2023-02-25T18:46:06.631Z,99611.06
2023-02-25T18:48:35.376Z,99613.06
2023-02-25T18:51:03.073Z,99619.38
2023-02-25T18:53:29.600Z,99620.34
2023-02-25T18:55:57.541Z,99611.78
2023-02-25T18:58:24.936Z,99616.16
2023-02-25T19:00:55.053Z,99622.34
2023-02-25T19:03:36.355Z,99626.84
2023-02-25T19:06:04.352Z,99627.56
2023-02-25T19:08:31.135Z,99618.88
2023-02-25T19:14:27.018Z,99624.03
2023-02-25T19:16:53.777Z,99629.25
2023-02-25T19:22:00.742Z,99653.63
2023-02-25T19:24:27.385Z,99641.34
2023-02-25T19:26:54.009Z,99650.81
2023-02-25T19:29:26.978Z,99656.91
2023-02-25T19:31:53.501Z,99659.47
2023-02-25T19:34:20.058Z,99685.34
2023-02-25T19:36:47.874Z,99696.81
2023-02-25T19:39:15.405Z,99700.44
2023-02-25T19:41:42.034Z,99682.34
2023-02-25T19:44:09.017Z,99688.53
2023-02-25T19:46:35.596Z,99691.22
2023-02-25T19:49:02.871Z,99686.09
2023-02-25T19:51:30.374Z,99683.72
2023-02-25T19:53:56.976Z,99679.69
2023-02-25T19:56:23.870Z,99692.09
2023-02-25T19:58:50.691Z,99689.88
2023-02-25T20:01:17.421Z,99699.75
2023-02-25T20:03:44.091Z,99703.53
2023-02-25T20:06:13.285Z,99702.03
2023-02-25T20:08:40.161Z,99696.13
2023-02-25T20:11:11.153Z,99706.75
2023-02-25T20:13:40.970Z,99714.72
2023-02-25T20:16:09.167Z,99709.59
2023-02-25T20:18:35.910Z,99707.97
2023-02-25T20:21:02.548Z,99714.22
2023-02-25T20:23:30.361Z,99713.50
2023-02-25T20:26:09.091Z,99718.09
2023-02-25T20:28:36.320Z,99726.81
2023-02-25T20:31:15.344Z,99726.22
2023-02-25T20:33:57.197Z,99728.00
2023-02-25T20:36:56.332Z,99729.13
2023-02-25T20:39:38.142Z,99731.00
2023-02-25T20:42:13.955Z,99738.00
2023-02-25T20:44:40.802Z,99736.41
2023-02-25T20:47:08.218Z,99739.06
2023-02-25T20:49:36.456Z,99740.91
2023-02-25T20:52:03.734Z,99738.34
2023-02-25T20:54:30.276Z,99751.41
2023-02-25T20:56:56.823Z,99748.91
2023-02-25T20:59:23.308Z,99753.31
2023-02-25T21:01:49.905Z,99743.84
2023-02-25T21:04:16.379Z,99751.72
2023-02-25T21:06:43.180Z,99754.34
2023-02-25T21:09:10.332Z,99749.19
2023-02-25T21:11:36.955Z,99752.69
2023-02-25T21:14:03.691Z,99761.41
2023-02-25T21:16:32.620Z,99763.19
2023-02-25T21:18:59.269Z,99766.72
2023-02-25T21:21:27.922Z,99770.22
2023-02-25T21:23:54.506Z,99768.50
2023-02-25T21:26:21.133Z,99772.00
2023-02-25T21:28:47.709Z,99778.13
2023-02-25T21:31:16.210Z,99785.13
2023-02-25T21:33:42.883Z,99778.19
2023-02-25T21:36:10.608Z,99780.00
2023-02-25T21:38:38.321Z,99773.16
2023-02-25T21:41:07.800Z,99781.91
2023-02-25T21:43:34.600Z,99781.06
2023-02-25T21:46:03.373Z,99788.97
2023-02-25T21:48:31.244Z,99785.56
2023-02-25T21:50:58.297Z,99787.31
2023-02-25T21:53:27.616Z,99789.94
2023-02-25T21:55:54.950Z,99794.38
2023-02-25T21:58:21.850Z,99792.66
2023-02-25T22:00:48.708Z,99793.59
2023-02-25T22:03:15.345Z,99796.25
2023-02-25T22:05:46.450Z,99794.59
2023-02-25T22:08:14.076Z,99803.28
2023-02-25T22:10:40.884Z,99805.97
2023-02-25T22:13:08.554Z,99806.88
2023-02-25T22:15:35.442Z,99806.91
2023-02-25T22:18:02.196Z,99806.06
2023-02-25T22:20:28.879Z,99807.78
2023-02-25T22:22:58.030Z,99815.66
2023-02-25T22:25:24.644Z,99813.09
2023-02-25T22:27:52.120Z,99809.59
2023-02-25T22:30:18.934Z,99821.72
2023-02-25T22:32:45.549Z,99825.22
2023-02-25T22:35:12.101Z,99818.31
2023-02-25T22:37:38.633Z,99824.34
2023-02-25T22:40:05.822Z,99822.63
2023-02-25T22:42:32.401Z,99826.13
2023-02-25T22:44:58.989Z,99822.66
2023-02-25T22:47:25.515Z,99825.28
2023-02-25T22:49:52.139Z,99826.19
2023-02-25T22:52:18.746Z,99834.91
2023-02-25T22:54:46.251Z,99835.81
2023-02-25T22:57:12.770Z,99835.81
2023-02-25T22:59:39.361Z,99842.75
2023-02-25T23:02:05.886Z,99841.84
2023-02-25T23:04:32.906Z,99846.25
2023-02-25T23:07:01.002Z,99849.69
2023-02-25T23:09:27.684Z,99852.28
2023-02-25T23:11:55.171Z,99846.22
2023-02-25T23:14:21.737Z,99852.22
2023-02-25T23:16:48.567Z,99854.78
2023-02-25T23:19:17.534Z,99860.78
2023-02-25T23:24:25.958Z,99864.09
2023-02-25T23:26:54.143Z,99856.19
2023-02-25T23:29:21.275Z,99860.47
2023-02-25T23:31:48.812Z,99862.13
2023-02-25T23:34:23.172Z,99874.22
2023-02-25T23:36:50.081Z,99875.81
2023-02-25T23:39:17.049Z,99887.03
2023-02-25T23:41:44.060Z,99880.09
2023-02-25T23:44:11.537Z,99882.66
2023-02-25T23:46:38.169Z,99889.66
2023-02-25T23:49:07.188Z,99897.53
2023-02-25T23:51:34.327Z,99896.72
2023-02-25T23:54:05.067Z,99895.09
2023-02-25T23:56:32.649Z,99896.91
2023-02-25T23:58:59.503Z,99908.34
